CYWH

Victoria Harbour Seaplane Base

Victoria, British Columbia, Canada
METAR CYWH 211500Z 24023G29KT 15SM FEW010 FEW025TCU 08/04 A3028 RMK CF1TCU2 CF TR SLP256
Observed Flight Rules
Apr-21 @ 15:00 UTC (39 minutes ago) Visual Flight Rules
Wind Visibility Clouds
240° at 23 knots
 Gusting to 29 knots
15 miles
  • Few at 1,000' AGL
  • Few at 2,500' AGL
Temperatures Readings
Current 8°C / 46°F
Dewpoint 4°C / 39°F
Humidity 76%
Altimeter 30.28" Hg
Pressure 1025.6 hPa
Elevation 10
METAR CYWH 211500Z 24023G29KT 15SM FEW010 FEW025TCU 08/04 A3028 RMK CF1TCU2 CF TR SLP256
Observed Flight Rules
Apr-21 @ 15:00 UTC
(39 minutes ago)
VFR
Wind Visibility
240° at 23 knots
 Gusting to 29 knots
15 miles
Clouds
  • Few at 1,000' AGL
  • Few at 2,500' AGL
Temperature Dewpoint
8°C / 46°F 4°C / 39°F
Humidity Altimeter Pressure
76% 30.28" Hg 1025.6 hPa